Time;durP1;ratioP1;P1;durP2;ratioP2;P2;SDS_P1;SDS_P2;PMS_P1;PMS_P2;Temp;Humidity;BMP_temperature;BMP_pressure;BME280_temperature;BME280_humidity;BME280_pressure;Samples;Min_cycle;Max_cycle;Signal;HPM_P1;HPM_P2
2022/12/13 00:02:31;;;;;;;22.35;9.98;;;;;;;5.56;96.85;100354.81;10295111;28;20042;-81
2022/12/13 00:07:33;;;;;;;16.30;9.77;;;;;;;5.13;96.51;100292.72;10295619;28;20097;-80
2022/12/13 00:12:34;;;;;;;21.40;10.13;;;;;;;5.57;96.20;100349.41;10276923;28;20132;-79
2022/12/13 00:17:35;;;;;;;17.13;9.63;;;;;;;5.55;96.72;100345.25;10294161;28;20166;-79
2022/12/13 00:22:36;;;;;;;17.10;10.32;;;;;;;5.53;96.72;100345.38;10293878;28;20134;-79
2022/12/13 00:27:36;;;;;;;20.70;10.88;;;;;;;5.40;96.67;100319.28;10294410;28;20051;-81
2022/12/13 00:32:37;;;;;;;21.65;10.65;;;;;;;5.48;96.55;100334.41;10294761;28;20045;-80
2022/12/13 00:37:38;;;;;;;18.77;10.60;;;;;;;5.53;95.96;100349.81;10293793;28;20035;-78
2022/12/13 00:42:39;;;;;;;22.17;11.25;;;;;;;5.17;96.95;100292.31;10293785;28;20056;-80
2022/12/13 00:47:39;;;;;;;18.20;10.65;;;;;;;5.54;96.58;100330.41;10293735;28;20153;-78
2022/12/13 00:52:40;;;;;;;23.48;10.20;;;;;;;4.98;96.50;100253.59;10292855;28;20071;-79
2022/12/13 00:57:41;;;;;;;16.15;10.57;;;;;;;5.39;95.85;100316.78;10292909;28;20059;-79
2022/12/13 01:02:42;;;;;;;17.10;9.98;;;;;;;5.50;96.21;100337.72;10293323;28;20120;-81
2022/12/13 01:07:43;;;;;;;19.48;11.40;;;;;;;5.33;95.40;100327.88;10292308;28;20059;-80
2022/12/13 01:12:46;;;;;;;24.20;10.80;;;;;;;4.67;96.34;100249.34;10292162;28;20047;-80
2022/12/13 01:17:48;;;;;;;19.70;10.40;;;;;;;4.95;97.11;100324.13;10275424;28;20441;-80
2022/12/13 01:22:49;;;;;;;21.02;10.23;;;;;;;4.77;97.47;100322.09;10292127;28;20042;-79
2022/12/13 01:27:50;;;;;;;21.77;10.70;;;;;;;4.79;98.00;100337.78;10292711;28;20410;-80
2022/12/13 01:32:51;;;;;;;18.20;10.80;;;;;;;4.56;98.24;100310.78;10291589;28;20062;-82
2022/12/13 01:37:51;;;;;;;22.90;11.32;;;;;;;4.58;99.77;100341.25;10291299;28;20047;-82
2022/12/13 01:42:52;;;;;;;19.95;9.95;;;;;;;4.43;99.10;100321.50;10291413;28;20093;-81
2022/12/13 01:47:58;;;;;;;20.88;10.95;;;;;;;4.45;98.80;100342.41;10291718;28;20062;-82
2022/12/13 01:53:00;;;;;;;18.50;9.80;;;;;;;3.97;99.17;100280.63;10290507;28;20137;-81
2022/12/13 01:58:03;;;;;;;18.15;9.52;;;;;;;4.30;99.67;100347.16;10291954;28;20451;-81
2022/12/13 02:03:04;;;;;;;17.77;9.45;;;;;;;4.11;99.13;100325.00;10274891;28;20074;-83
2022/12/13 02:08:09;;;;;;;17.40;9.70;;;;;;;4.18;99.12;100348.16;10291598;28;20077;-82
2022/12/13 02:13:10;;;;;;;16.63;9.82;;;;;;;4.04;99.75;100323.88;10291936;28;20418;-81
2022/12/13 02:18:13;;;;;;;20.90;9.50;;;;;;;4.11;99.16;100353.09;10290525;28;20126;-81
2022/12/13 02:23:47;;;;;;;21.17;9.52;;;;;;;4.07;100.00;100351.69;10291057;28;20039;-83
2022/12/13 02:29:09;;;;;;;20.00;9.82;;;;;;;3.53;99.36;100261.47;10290412;28;20051;-82
2022/12/13 02:34:20;;;;;;;21.65;9.57;;;;;;;3.93;99.87;100331.78;10287590;28;20061;-81
2022/12/13 02:39:55;;;;;;;20.98;9.55;;;;;;;3.32;100.00;100232.56;10290206;28;20439;-83
2022/12/13 02:45:01;;;;;;;22.25;9.57;;;;;;;3.95;100.00;100340.41;10280482;28;20506;-81
2022/12/13 02:50:06;;;;;;;18.35;9.15;;;;;;;3.90;99.56;100332.03;10291235;28;20059;-82
2022/12/13 02:55:07;;;;;;;;;;;;;;;4.04;99.18;100350.16;10273671;28;20050;-81
2022/12/13 03:00:13;;;;;;;21.85;9.55;;;;;;;3.97;99.41;100342.88;10289777;28;19925;-81
2022/12/13 03:11:02;;;;;;;17.75;9.38;;;;;;;3.93;99.48;100346.72;10291875;28;20527;-78
2022/12/13 03:16:27;;;;;;;17.55;9.02;;;;;;;3.88;100.00;100331.31;10272512;28;20570;-78
2022/12/13 03:21:28;;;;;;;16.05;8.82;;;;;;;3.90;100.00;100339.94;10289973;28;20049;-78
2022/12/13 03:26:28;;;;;;;21.90;10.00;;;;;;;3.64;100.00;100310.50;10289995;28;20049;-78
2022/12/13 03:31:29;;;;;;;18.77;9.90;;;;;;;3.86;100.00;100338.53;10289681;28;20039;-78
2022/12/13 03:36:30;;;;;;;17.92;9.48;;;;;;;3.81;100.00;100332.78;10290001;28;20141;-78
2022/12/13 03:41:31;;;;;;;19.27;9.18;;;;;;;3.85;100.00;100334.19;10290359;28;20074;-77
2022/12/13 03:46:32;;;;;;;18.75;9.20;;;;;;;3.76;100.00;100332.31;10295775;28;20154;-78
2022/12/13 03:51:33;;;;;;;16.63;9.65;;;;;;;3.84;100.00;100332.53;10295210;28;20526;-78
2022/12/13 03:56:34;;;;;;;19.67;9.40;;;;;;;2.81;99.75;100151.78;10295035;28;20125;-77
2022/12/13 04:01:35;;;;;;;18.90;9.73;;;;;;;3.88;100.00;100328.69;10295205;28;20127;-78
2022/12/13 04:06:35;;;;;;;26.00;9.88;;;;;;;3.88;100.00;100326.91;10295205;28;20034;-78
2022/12/13 04:16:57;;;;;;;16.33;8.45;;;;;;;3.66;100.00;100296.28;10263502;28;20129;-78
2022/12/13 04:21:58;;;;;;;20.77;9.38;;;;;;;3.26;100.00;100232.19;10294654;28;20047;-78
2022/12/13 04:27:00;;;;;;;13.00;8.80;;;;;;;3.75;100.00;100313.09;10294167;28;20062;-78
2022/12/13 04:32:02;;;;;;;18.13;9.15;;;;;;;3.78;100.00;100320.72;10294157;28;20042;-78
2022/12/13 04:37:04;;;;;;;19.92;8.40;;;;;;;3.83;100.00;100329.09;10291966;28;20494;-78
2022/12/13 04:42:04;;;;;;;15.23;8.85;;;;;;;3.77;99.53;100326.97;10272653;28;20059;-78
2022/12/13 04:47:05;;;;;;;19.00;8.55;;;;;;;3.71;99.63;100316.09;10293191;28;20046;-79
2022/12/13 04:52:06;;;;;;;16.50;8.18;;;;;;;3.75;99.17;100323.63;10294255;28;20062;-80
2022/12/13 04:57:10;;;;;;;14.35;8.02;;;;;;;3.89;99.79;100340.91;10292738;28;20135;-80
2022/12/13 05:02:11;;;;;;;15.50;8.82;;;;;;;3.90;99.17;100347.81;10292984;28;20133;-81
2022/12/13 05:07:12;;;;;;;19.55;8.48;;;;;;;3.80;99.32;100331.09;10292214;28;20514;-82
2022/12/13 05:12:13;;;;;;;15.10;8.15;;;;;;;3.73;99.02;100315.00;10293163;28;20041;-81
2022/12/13 05:17:13;;;;;;;21.08;8.75;;;;;;;3.98;99.04;100350.66;10293166;28;20051;-81
2022/12/13 05:22:15;;;;;;;17.13;9.20;;;;;;;4.03;98.94;100356.34;10291855;28;20038;-80
2022/12/13 05:27:16;;;;;;;17.58;9.00;;;;;;;4.03;98.76;100353.72;10290892;28;20039;-81
2022/12/13 05:32:17;;;;;;;12.63;7.32;;;;;;;4.02;98.64;100348.59;10275804;28;20096;-82
2022/12/13 05:37:18;;;;;;;16.77;8.60;;;;;;;4.07;99.12;100349.91;10291971;28;20545;-82
2022/12/13 05:42:19;;;;;;;17.88;8.57;;;;;;;3.43;98.79;100244.78;10291966;28;20074;-81
2022/12/13 05:47:19;;;;;;;16.35;7.82;;;;;;;4.08;98.55;100356.81;10291160;28;20054;-81
2022/12/13 05:52:21;;;;;;;16.95;8.75;;;;;;;4.05;98.90;100348.34;10292446;28;20134;-80
2022/12/13 05:57:22;;;;;;;20.42;8.45;;;;;;;3.82;98.27;100313.44;10292619;28;20041;-79
2022/12/13 06:02:23;;;;;;;16.17;7.90;;;;;;;3.98;98.13;100329.63;10273587;28;20133;-82
2022/12/13 06:07:24;;;;;;;15.65;8.75;;;;;;;3.07;98.16;100167.22;10291233;28;20129;-82
2022/12/13 06:12:24;;;;;;;14.40;7.72;;;;;;;4.07;97.94;100328.03;10291813;28;20050;-82
2022/12/13 06:17:28;;;;;;;17.75;8.93;;;;;;;4.26;97.94;100332.59;10274285;28;20392;-83
2022/12/13 06:22:29;;;;;;;15.32;8.05;;;;;;;3.95;97.27;100269.44;10290483;28;20074;-81
2022/12/13 06:27:30;;;;;;;14.65;8.30;;;;;;;3.91;97.49;100260.13;10291521;28;20070;-83
2022/12/13 06:32:30;;;;;;;16.10;8.68;;;;;;;4.17;97.63;100296.56;10291475;28;20046;-80
2022/12/13 06:37:31;;;;;;;23.85;8.40;;;;;;;4.19;96.97;100299.88;10291986;28;20079;-79
2022/12/13 06:42:32;;;;;;;25.73;8.65;;;;;;;3.79;96.96;100237.47;10298226;28;20046;-79
2022/12/13 06:47:33;;;;;;;17.25;8.57;;;;;;;3.78;96.51;100233.19;10298325;28;20493;-78
2022/12/13 06:52:34;;;;;;;15.60;8.52;;;;;;;4.24;96.43;100309.03;10298076;28;20051;-80
2022/12/13 06:57:35;;;;;;;17.55;8.52;;;;;;;3.62;96.49;100189.81;10280293;28;20102;-77
2022/12/13 07:02:36;;;;;;;17.70;8.38;;;;;;;3.97;96.22;100243.84;10297890;28;20074;-81
2022/12/13 07:07:37;;;;;;;20.27;9.77;;;;;;;4.11;95.47;100266.34;10280287;28;20116;-81
2022/12/13 07:12:38;;;;;;;18.70;9.13;;;;;;;4.42;95.45;100309.31;10296768;28;20107;-80
2022/12/13 07:17:41;;;;;;;23.48;9.68;;;;;;;4.47;95.84;100309.75;10297227;28;20368;-79
2022/12/13 07:22:42;;;;;;;20.05;8.77;;;;;;;4.75;95.68;100331.09;10297311;28;20051;-82
2022/12/13 07:27:42;;;;;;;20.88;8.95;;;;;;;4.84;95.03;100332.09;10297296;28;20478;-82
2022/12/13 07:32:43;;;;;;;23.55;9.57;;;;;;;3.98;93.97;100182.44;10296598;28;20124;-80
2022/12/13 07:37:44;;;;;;;21.40;9.10;;;;;;;4.71;94.53;100316.53;10296440;28;20058;-80
2022/12/13 07:42:52;;;;;;;27.90;10.70;;;;;;;4.66;95.00;100282.72;10295763;28;20129;-82
2022/12/13 07:47:53;;;;;;;21.30;10.35;;;;;;;4.41;95.03;100241.06;10295928;28;20133;-81
2022/12/13 07:52:54;;;;;;;20.08;10.98;;;;;;;4.85;94.53;100313.56;10294935;28;20464;-79
2022/12/13 07:57:55;;;;;;;21.05;10.40;;;;;;;4.55;93.50;100288.91;10278182;28;20053;-80
2022/12/13 08:02:55;;;;;;;23.40;10.98;;;;;;;4.78;94.29;100317.66;10294837;28;20066;-79
2022/12/13 08:07:56;;;;;;;19.95;9.60;;;;;;;4.88;93.52;100308.03;10295324;28;20094;-80
2022/12/13 08:12:58;;;;;;;32.80;11.25;;;;;;;4.73;93.87;100262.81;10295008;28;20054;-81
2022/12/13 08:18:02;;;;;;;25.27;11.07;;;;;;;4.91;93.41;100291.97;10294384;28;20046;-80
2022/12/13 08:23:03;;;;;;;32.25;12.93;;;;;;;4.96;93.34;100284.50;10294705;28;20137;-78
2022/12/13 08:28:04;;;;;;;25.50;12.77;;;;;;;4.94;93.21;100296.16;10294713;28;20125;-78
2022/12/13 08:33:06;;;;;;;20.15;10.48;;;;;;;4.67;92.82;100262.50;10294489;28;20042;-79
2022/12/13 08:38:07;;;;;;;28.65;10.63;;;;;;;4.80;93.48;100244.69;10294044;28;20380;-80
2022/12/13 08:43:08;;;;;;;24.00;13.55;;;;;;;5.07;92.78;100269.56;10275923;28;20047;-81
2022/12/13 08:48:09;;;;;;;28.58;14.32;;;;;;;5.10;92.47;100249.06;10294128;28;20055;-78
2022/12/13 08:53:10;;;;;;;29.55;16.95;;;;;;;4.90;92.31;100216.59;10293962;28;20042;-79
2022/12/13 08:58:11;;;;;;;23.20;13.48;;;;;;;5.06;92.35;100247.69;10292545;28;20047;-81
2022/12/13 09:03:12;;;;;;;23.45;13.60;;;;;;;5.21;92.15;100262.13;10293176;28;20074;-80
2022/12/13 09:08:12;;;;;;;28.05;13.98;;;;;;;5.18;91.87;100257.13;10292316;28;20094;-78
2022/12/13 09:13:13;;;;;;;34.08;18.30;;;;;;;5.06;92.02;100233.69;10293145;28;20038;-79
2022/12/13 09:18:14;;;;;;;24.20;12.32;;;;;;;4.46;91.53;100121.34;10293116;28;20049;-82
2022/12/13 09:23:15;;;;;;;24.38;11.13;;;;;;;5.16;91.74;100222.19;10292393;28;20403;-78
2022/12/13 09:28:16;;;;;;;21.23;12.00;;;;;;;4.76;91.22;100143.28;10292908;28;20046;-80
2022/12/13 09:33:17;;;;;;;20.65;12.57;;;;;;;5.21;92.01;100206.81;10291777;28;20066;-82
2022/12/13 09:38:19;;;;;;;23.48;11.55;;;;;;;5.37;91.54;100202.81;10291341;28;20074;-81
2022/12/13 09:43:26;;;;;;;24.70;11.98;;;;;;;5.40;91.18;100213.91;10291999;28;20509;-81
2022/12/13 09:48:27;;;;;;;23.45;12.15;;;;;;;5.12;91.53;100143.63;10292001;28;20419;-83
2022/12/13 09:53:28;;;;;;;29.38;13.18;;;;;;;5.38;91.16;100168.41;10292264;28;20498;-79
2022/12/13 09:58:30;;;;;;;23.05;12.30;;;;;;;4.93;90.73;100075.97;10291352;28;20042;-82
2022/12/13 10:03:31;;;;;;;30.02;12.02;;;;;;;5.69;90.84;100179.66;10292060;28;20096;-79
2022/12/13 10:08:37;;;;;;;25.45;13.00;;;;;;;5.65;91.26;100173.00;10291966;28;20047;-82
2022/12/13 10:13:47;;;;;;;25.98;12.85;;;;;;;5.46;90.67;100136.94;10292998;28;20097;-80
2022/12/13 10:18:48;;;;;;;28.90;13.00;;;;;;;5.24;90.58;100113.53;10299394;28;20065;-81
2022/12/13 10:23:49;;;;;;;25.80;12.40;;;;;;;5.36;91.02;100122.97;10300044;28;20034;-81
2022/12/13 10:29:00;;;;;;;26.05;13.25;;;;;;;5.57;91.08;100162.31;10299027;28;20042;-82
2022/12/13 10:34:01;;;;;;;25.90;12.48;;;;;;;5.57;90.94;100170.22;10298818;28;20093;-82
2022/12/13 10:39:02;;;;;;;32.17;12.55;;;;;;;5.59;91.48;100170.91;10298560;28;20193;-79
2022/12/13 10:44:28;;;;;;;21.45;11.25;;;;;;;5.55;91.24;100173.97;10297898;28;20069;-79
2022/12/13 10:49:54;;;;;;;18.65;11.00;;;;;;;5.52;91.44;100174.25;10285892;28;20061;-82
2022/12/13 10:54:57;;;;;;;22.15;11.85;;;;;;;5.45;91.38;100168.72;10290686;28;20051;-82
2022/12/13 10:59:58;;;;;;;24.13;11.13;;;;;;;5.38;92.26;100168.41;10297284;28;20202;-81
2022/12/13 11:05:21;;;;;;;20.95;10.48;;;;;;;4.77;91.96;100063.38;10297330;28;20089;-82
2022/12/13 11:10:28;;;;;;;21.08;10.07;;;;;;;5.38;92.37;100157.06;10295873;28;20054;-82
2022/12/13 11:15:31;;;;;;;19.58;11.18;;;;;;;5.17;92.09;100136.94;10297228;28;20049;-81
2022/12/13 11:20:35;;;;;;;23.20;11.27;;;;;;;5.42;91.68;100174.25;10297525;28;20054;-84
2022/12/13 11:25:40;;;;;;;21.73;11.00;;;;;;;5.42;92.45;100167.19;10294597;28;20430;-79
2022/12/13 11:31:05;;;;;;;19.40;10.70;;;;;;;5.41;91.55;100170.78;10296205;28;20105;-83
2022/12/13 11:36:21;;;;;;;25.67;11.48;;;;;;;5.35;91.49;100168.69;10296600;28;20415;-82
2022/12/13 11:41:34;;;;;;;23.38;10.30;;;;;;;5.32;92.06;100150.53;10295749;28;20125;-83
2022/12/13 11:46:45;;;;;;;18.75;10.38;;;;;;;5.29;92.66;100142.09;10295576;28;20054;-84
2022/12/13 11:51:52;;;;;;;20.88;10.45;;;;;;;4.85;92.06;100070.59;10296518;28;20141;-82
2022/12/13 11:56:56;;;;;;;21.52;11.82;;;;;;;5.30;91.88;100147.22;10296338;28;20054;-80
2022/12/13 12:02:11;;;;;;;24.45;10.75;;;;;;;5.33;92.60;100160.13;10295795;28;20047;-81
2022/12/13 12:07:19;;;;;;;23.67;10.77;;;;;;;4.32;93.23;99992.84;10295525;28;20057;-79
2022/12/13 12:12:30;;;;;;;25.05;12.23;;;;;;;5.21;93.18;100159.41;10294617;28;20053;-79
2022/12/13 12:17:31;;;;;;;23.27;10.70;;;;;;;5.30;92.99;100164.84;10295545;28;20122;-80
2022/12/13 12:22:58;;;;;;;20.05;10.68;;;;;;;5.30;93.25;100160.41;10276762;28;20046;-82
2022/12/13 12:28:21;;;;;;;46.13;21.90;;;;;;;5.26;92.96;100173.00;10285228;28;20035;-80
2022/12/13 12:33:41;;;;;;;30.83;10.07;;;;;;;5.25;93.59;100157.34;10280528;28;20058;-78
2022/12/13 12:39:09;;;;;;;21.20;10.20;;;;;;;5.20;93.02;100170.91;10292934;28;20051;-76
2022/12/13 12:44:40;;;;;;;22.25;10.93;;;;;;;5.07;93.70;100161.63;10292502;28;20042;-81
2022/12/13 12:50:12;;;;;;;20.98;9.77;;;;;;;5.13;94.00;100180.34;10292530;28;20093;-76
2022/12/13 12:55:50;;;;;;;21.33;10.73;;;;;;;5.13;93.47;100180.34;10253546;29;20138;-78
2022/12/13 13:01:28;;;;;;;23.10;11.10;;;;;;;5.11;94.28;100191.97;10252228;29;20046;-77
2022/12/13 13:06:39;;;;;;;22.20;10.48;;;;;;;4.60;94.45;100109.59;10264205;28;20451;-75
2022/12/13 13:11:42;;;;;;;22.27;10.70;;;;;;;4.96;94.60;100158.13;10292968;28;20059;-75
2022/12/13 13:16:43;;;;;;;25.52;10.93;;;;;;;4.96;94.65;100152.03;10292046;28;20046;-74
2022/12/13 13:21:48;;;;;;;19.17;10.38;;;;;;;4.97;95.11;100159.00;10293009;28;20069;-76
2022/12/13 13:26:52;;;;;;;30.38;11.23;;;;;;;4.97;95.13;100166.88;10252812;29;20146;-77
2022/12/13 13:32:11;;;;;;;20.48;9.40;;;;;;;4.94;94.65;100157.47;10252979;29;20078;-74
2022/12/13 13:37:21;;;;;;;25.23;10.88;;;;;;;3.95;94.98;100004.00;10252198;29;20047;-78
2022/12/13 13:42:28;;;;;;;21.98;9.68;;;;;;;4.86;95.34;100157.28;10251538;29;20511;-77
2022/12/13 13:47:37;;;;;;;27.85;9.77;;;;;;;4.83;95.10;100170.72;10251158;28;20063;-79
2022/12/13 13:52:50;;;;;;;17.17;9.52;;;;;;;4.81;95.32;100170.03;10251997;29;20042;-77
2022/12/13 13:58:09;;;;;;;25.90;10.52;;;;;;;4.79;95.67;100185.13;10251155;29;20105;-78
2022/12/13 14:03:28;;;;;;;26.17;11.07;;;;;;;4.80;95.48;100192.06;10251661;29;20086;-80
2022/12/13 14:08:58;;;;;;;21.35;10.25;;;;;;;4.81;95.60;100198.97;10252500;29;20066;-78
2022/12/13 14:14:30;;;;;;;21.23;10.43;;;;;;;4.76;95.29;100193.31;10253925;29;20050;-75
2022/12/13 14:20:24;;;;;;;22.65;9.68;;;;;;;4.75;96.04;100196.88;10251187;29;20047;-78
2022/12/13 14:25:34;;;;;;;28.48;10.02;;;;;;;4.70;96.03;100201.72;10156356;29;20109;-77
2022/12/13 14:30:40;;;;;;;30.20;11.20;;;;;;;4.48;96.41;100169.38;10251314;29;20043;-76
2022/12/13 14:35:50;;;;;;;30.20;10.25;;;;;;;4.50;97.23;100172.72;10287681;28;20043;-76
2022/12/13 14:41:00;;;;;;;26.80;11.18;;;;;;;4.43;96.91;100174.22;10290753;28;20145;-75
2022/12/13 14:46:03;;;;;;;31.45;11.35;;;;;;;4.42;97.52;100185.69;10291053;28;20137;-77
2022/12/13 14:51:05;;;;;;;25.33;11.13;;;;;;;4.39;98.10;100174.59;10290974;28;20073;-76
2022/12/13 14:56:12;;;;;;;38.05;11.85;;;;;;;3.79;98.44;100083.28;10288390;28;20096;-74
2022/12/13 15:01:34;;;;;;;34.40;11.90;;;;;;;4.41;100.00;100194.53;10292756;28;20129;-77
2022/12/13 15:06:35;;;;;;;29.23;11.88;;;;;;;4.16;99.19;100166.03;10298043;28;20477;-78
2022/12/13 15:11:36;;;;;;;26.02;11.30;;;;;;;4.28;99.13;100205.28;10296761;28;20047;-75
2022/12/13 15:16:37;;;;;;;32.70;11.70;;;;;;;4.15;100.00;100186.25;10297260;28;20043;-77
2022/12/13 15:21:37;;;;;;;29.00;11.02;;;;;;;3.52;100.00;100088.25;10298318;28;20517;-78
2022/12/13 15:26:38;;;;;;;23.58;10.20;;;;;;;4.06;100.00;100200.19;10296489;28;20044;-77
2022/12/13 15:31:39;;;;;;;28.98;10.57;;;;;;;3.48;100.00;100127.09;10292506;28;20564;-77
2022/12/13 15:36:40;;;;;;;32.72;10.15;;;;;;;3.53;100.00;100140.66;10296238;28;20042;-77
2022/12/13 15:41:45;;;;;;;34.55;10.38;;;;;;;3.64;100.00;100164.22;10292015;28;20054;-73
2022/12/13 15:46:49;;;;;;;28.17;10.52;;;;;;;3.78;100.00;100185.91;10336439;28;20061;-79
2022/12/13 15:52:00;;;;;;;33.92;10.48;;;;;;;3.77;100.00;100195.59;10318883;28;20038;-75
2022/12/13 15:57:20;;;;;;;27.98;10.68;;;;;;;3.61;100.00;100182.03;10329905;28;20046;-74
2022/12/13 16:02:24;;;;;;;25.30;9.95;;;;;;;3.14;100.00;100124.63;10333038;28;20475;-74
2022/12/13 16:07:38;;;;;;;25.77;9.53;;;;;;;3.56;100.00;100228.84;10322218;28;20046;-75
2022/12/13 16:12:47;;;;;;;28.27;9.95;;;;;;;3.38;100.00;100195.28;10309978;28;20290;-73
2022/12/13 16:17:52;;;;;;;29.27;10.02;;;;;;;3.57;100.00;100228.75;10311175;28;20034;-72
2022/12/13 16:22:53;;;;;;;29.85;10.07;;;;;;;3.53;100.00;100213.34;10332192;28;20112;-76
2022/12/13 16:27:54;;;;;;;31.30;10.60;;;;;;;2.55;100.00;100066.50;10331850;28;20041;-88
2022/12/13 16:32:55;;;;;;;24.65;10.30;;;;;;;3.47;100.00;100238.34;10334913;28;20053;-80
2022/12/13 16:37:55;;;;;;;29.38;11.07;;;;;;;3.48;100.00;100257.56;10331778;28;20212;-75
2022/12/13 16:43:02;;;;;;;30.38;11.30;;;;;;;2.92;100.00;100153.56;10359038;28;20498;-74
2022/12/13 16:48:05;;;;;;;37.08;11.57;;;;;;;3.29;100.00;100219.66;10368093;28;20081;-75
2022/12/13 16:53:06;;;;;;;44.28;12.18;;;;;;;3.01;100.00;100183.47;10334800;28;20047;-77
2022/12/13 16:58:14;;;;;;;31.15;11.35;;;;;;;3.20;100.00;100216.00;10311787;28;20046;-82
2022/12/13 17:03:15;;;;;;;32.92;12.00;;;;;;;2.87;100.00;100153.06;10331334;28;20141;-82
2022/12/13 17:08:16;;;;;;;36.10;11.45;;;;;;;3.31;100.00;100201.97;10329024;28;20129;-82
2022/12/13 17:13:16;;;;;;;28.75;11.63;;;;;;;3.37;100.00;100232.16;10330743;28;20133;-80
2022/12/13 17:18:18;;;;;;;40.53;13.43;;;;;;;2.57;100.00;100107.34;10328495;28;20042;-82
2022/12/13 17:23:19;;;;;;;37.90;12.82;;;;;;;2.87;100.00;100167.06;10329661;28;20053;-79
2022/12/13 17:28:20;;;;;;;48.95;14.82;;;;;;;2.65;100.00;100119.88;10328745;28;20046;-83
2022/12/13 17:33:20;;;;;;;33.35;14.13;;;;;;;2.81;100.00;100178.00;10321842;28;20141;-82
2022/12/13 17:38:21;;;;;;;39.35;13.95;;;;;;;3.00;100.00;100190.50;10315969;28;20536;-82
2022/12/13 17:43:23;;;;;;;32.47;13.70;;;;;;;2.82;100.00;100190.19;10313111;28;20054;-84
2022/12/13 17:48:24;;;;;;;38.22;13.68;;;;;;;2.59;100.00;100139.56;10294569;28;20638;-81
2022/12/13 17:53:25;;;;;;;30.70;13.88;;;;;;;2.98;100.00;100202.91;10329817;28;20111;-80
2022/12/13 17:58:26;;;;;;;32.85;14.65;;;;;;;2.88;100.00;100186.25;10337173;28;20406;-80
2022/12/13 18:03:27;;;;;;;38.88;13.57;;;;;;;2.90;100.00;100185.19;10332101;28;20038;-81
2022/12/13 18:08:28;;;;;;;33.78;13.65;;;;;;;2.59;100.00;100133.47;10321517;28;20049;-80
2022/12/13 18:13:29;;;;;;;40.40;13.73;;;;;;;2.58;100.00;100140.53;10353257;28;20042;-79
2022/12/13 18:18:29;;;;;;;32.80;13.48;;;;;;;2.75;100.00;100170.63;10341558;28;20056;-77
2022/12/13 18:23:31;;;;;;;27.23;13.35;;;;;;;2.92;100.00;100195.53;10345790;28;20034;-78
2022/12/13 18:28:32;;;;;;;27.08;13.23;;;;;;;2.90;100.00;100200.06;10345556;28;20042;-79
2022/12/13 18:33:33;;;;;;;29.55;12.65;;;;;;;2.80;100.00;100178.16;10342739;28;20038;-77
2022/12/13 18:38:36;;;;;;;24.23;13.57;;;;;;;2.16;100.00;100071.34;10336391;28;20030;-81
2022/12/13 18:43:37;;;;;;;30.27;13.52;;;;;;;2.71;100.00;100154.31;10342422;28;20077;-82
2022/12/13 18:48:39;;;;;;;38.22;14.15;;;;;;;2.23;100.00;100088.25;10336651;28;20493;-81
2022/12/13 18:53:40;;;;;;;28.90;13.20;;;;;;;2.69;100.00;100169.34;10335659;28;20050;-82
2022/12/13 18:58:41;;;;;;;30.25;12.45;;;;;;;2.90;100.00;100195.66;10335731;28;20046;-81
2022/12/13 19:03:44;;;;;;;26.15;11.05;;;;;;;2.76;100.00;100189.84;10316809;28;20446;-80
2022/12/13 19:08:50;;;;;;;23.88;11.32;;;;;;;2.68;100.00;100178.16;10315941;28;20110;-81
2022/12/13 19:13:51;;;;;;;21.67;10.60;;;;;;;2.78;100.00;100196.63;10335259;28;20038;-83
2022/12/13 19:18:52;;;;;;;40.30;12.20;;;;;;;2.78;100.00;100206.28;10333150;28;20069;-81
2022/12/13 19:23:55;;;;;;;33.85;10.82;;;;;;;2.58;100.00;100179.03;10335719;28;20218;-80
2022/12/13 19:28:57;;;;;;;27.75;12.23;;;;;;;2.67;100.00;100191.41;10315802;28;20070;-82
2022/12/13 19:34:00;;;;;;;22.40;12.00;;;;;;;2.69;100.00;100182.47;10310748;28;20501;-81
2022/12/13 19:39:01;;;;;;;31.30;11.10;;;;;;;2.37;100.00;100136.97;10299188;28;20121;-81
2022/12/13 19:44:03;;;;;;;23.85;11.15;;;;;;;2.45;100.00;100159.00;10336553;28;20145;-82
2022/12/13 19:49:04;;;;;;;33.42;11.80;;;;;;;2.75;100.00;100194.25;10334993;28;20065;-79
2022/12/13 19:54:05;;;;;;;23.38;12.23;;;;;;;2.66;100.00;100185.34;10335842;28;20061;-82
2022/12/13 19:59:06;;;;;;;30.25;12.23;;;;;;;2.62;100.00;100186.50;10335289;28;20034;-81
2022/12/13 20:04:06;;;;;;;19.58;10.95;;;;;;;2.80;100.00;100171.09;10335481;28;20483;-83
2022/12/13 20:09:07;;;;;;;20.15;11.32;;;;;;;2.47;100.00;100146.59;10333620;28;20406;-80
2022/12/13 20:14:08;;;;;;;30.70;11.98;;;;;;;2.74;100.00;100179.47;10328865;28;20043;-81
2022/12/13 20:19:09;;;;;;;33.55;12.48;;;;;;;2.58;100.00;100134.44;10332154;28;20034;-80
2022/12/13 20:24:10;;;;;;;38.83;12.68;;;;;;;2.77;100.00;100181.84;10335624;28;20050;-81
2022/12/13 20:29:12;;;;;;;35.60;12.65;;;;;;;2.63;100.00;100169.84;10334416;28;20046;-81
2022/12/13 20:34:13;;;;;;;39.03;11.93;;;;;;;2.72;100.00;100182.22;10334447;28;20088;-78
2022/12/13 20:39:14;;;;;;;25.45;12.52;;;;;;;2.63;100.00;100161.13;10334447;28;20486;-79
2022/12/13 20:44:15;;;;;;;51.42;13.82;;;;;;;2.80;100.00;100178.16;10333973;28;20043;-78
2022/12/13 20:49:15;;;;;;;44.83;13.73;;;;;;;2.76;100.00;100188.06;10334231;28;20109;-79
2022/12/13 20:54:16;;;;;;;49.05;12.50;;;;;;;2.69;100.00;100156.25;10333781;28;20038;-78
2022/12/13 20:59:17;;;;;;;36.17;12.98;;;;;;;2.42;100.00;100106.81;10333996;28;20046;-78
2022/12/13 21:04:18;;;;;;;32.63;14.00;;;;;;;2.89;100.00;100201.03;10332820;28;20049;-78
2022/12/13 21:09:19;;;;;;;48.35;13.85;;;;;;;2.83;100.00;100173.47;10333160;28;20042;-77
2022/12/13 21:14:24;;;;;;;40.67;14.52;;;;;;;2.89;100.00;100204.47;10332909;28;20045;-76
2022/12/13 21:19:31;;;;;;;43.05;14.45;;;;;;;2.86;100.00;100190.78;10333269;28;20397;-78
2022/12/13 21:24:32;;;;;;;40.00;13.85;;;;;;;2.37;100.00;100101.09;10332254;28;20387;-77
2022/12/13 21:29:32;;;;;;;68.97;14.48;;;;;;;2.73;100.00;100138.47;10332082;28;20129;-78
2022/12/13 21:34:33;;;;;;;81.68;14.95;;;;;;;2.85;100.00;100165.50;10332602;28;20096;-77
2022/12/13 21:39:34;;;;;;;46.70;15.05;;;;;;;2.66;100.00;100132.03;10332786;28;20064;-77
2022/12/13 21:44:35;;;;;;;49.22;16.30;;;;;;;2.87;100.00;100161.81;10331718;28;20057;-77
2022/12/13 21:49:35;;;;;;;58.75;15.85;;;;;;;2.70;100.00;100115.94;10331228;28;20062;-77
2022/12/13 21:54:36;;;;;;;35.97;14.90;;;;;;;2.88;100.00;100162.63;10331487;28;20446;-78
2022/12/13 21:59:37;;;;;;;38.40;16.05;;;;;;;2.93;100.00;100165.69;10331504;28;20414;-77
2022/12/13 22:04:40;;;;;;;37.15;15.43;;;;;;;2.47;100.00;100101.19;10331810;28;20053;-78
2022/12/13 22:09:41;;;;;;;38.75;15.38;;;;;;;2.59;100.00;100107.25;10334515;28;20038;-78
2022/12/13 22:14:41;;;;;;;40.08;15.45;;;;;;;2.93;100.00;100147.34;10340213;28;20054;-78
2022/12/13 22:19:42;;;;;;;39.08;17.00;;;;;;;2.08;100.00;100016.91;10339857;28;20045;-77
2022/12/13 22:24:44;;;;;;;28.80;15.75;;;;;;;3.13;100.00;100180.69;10340785;28;20045;-77
2022/12/13 22:29:45;;;;;;;42.67;15.80;;;;;;;2.98;100.00;100167.00;10339977;28;20046;-78
2022/12/13 22:34:46;;;;;;;50.08;16.42;;;;;;;2.63;100.00;100083.31;10338631;28;20042;-77
2022/12/13 22:39:46;;;;;;;41.60;16.00;;;;;;;2.96;100.00;100141.84;10337795;28;20104;-77
2022/12/13 22:44:47;;;;;;;33.03;15.90;;;;;;;3.06;100.00;100150.66;10339444;28;20423;-77
2022/12/13 22:49:48;;;;;;;58.25;16.23;;;;;;;2.61;100.00;100079.97;10339074;28;20133;-78
2022/12/13 22:54:49;;;;;;;50.63;16.45;;;;;;;2.53;100.00;100064.00;10337817;28;20069;-79
2022/12/13 22:59:50;;;;;;;48.45;16.67;;;;;;;3.16;100.00;100169.94;10338258;28;20105;-78
2022/12/13 23:04:51;;;;;;;46.20;16.48;;;;;;;3.13;100.00;100164.94;10338200;28;20559;-77
2022/12/13 23:09:51;;;;;;;53.88;16.55;;;;;;;3.04;100.00;100160.44;10337875;28;20046;-77
2022/12/13 23:14:52;;;;;;;60.15;16.23;;;;;;;2.57;100.00;100083.75;10320926;28;20046;-77